sensor_id;sensor_type;location;lat;lon;timestamp;temperature;humidity
70676;DHT22;59069;52.242;20.900;2023-10-31T00:00:37;12.10;87.79
70676;DHT22;59069;52.242;20.900;2023-10-31T00:03:03;12.08;87.89
70676;DHT22;59069;52.242;20.900;2023-10-31T00:05:28;12.07;87.92
70676;DHT22;59069;52.242;20.900;2023-10-31T00:07:54;12.03;88.09
70676;DHT22;59069;52.242;20.900;2023-10-31T00:10:19;12.01;88.12
70676;DHT22;59069;52.242;20.900;2023-10-31T00:12:44;12.01;88.21
70676;DHT22;59069;52.242;20.900;2023-10-31T00:15:10;11.98;88.35
70676;DHT22;59069;52.242;20.900;2023-10-31T00:17:35;11.98;88.38
70676;DHT22;59069;52.242;20.900;2023-10-31T00:20:01;11.95;88.46
70676;DHT22;59069;52.242;20.900;2023-10-31T00:22:26;11.97;88.51
70676;DHT22;59069;52.242;20.900;2023-10-31T00:24:51;11.98;88.55
70676;DHT22;59069;52.242;20.900;2023-10-31T00:27:17;11.98;88.58
70676;DHT22;59069;52.242;20.900;2023-10-31T00:29:42;11.97;88.59
70676;DHT22;59069;52.242;20.900;2023-10-31T00:32:08;11.95;88.59
70676;DHT22;59069;52.242;20.900;2023-10-31T00:34:33;11.97;88.67
70676;DHT22;59069;52.242;20.900;2023-10-31T00:36:58;11.97;88.66
70676;DHT22;59069;52.242;20.900;2023-10-31T00:39:24;11.98;88.60
70676;DHT22;59069;52.242;20.900;2023-10-31T00:41:49;11.98;88.65
70676;DHT22;59069;52.242;20.900;2023-10-31T00:44:14;11.97;88.62
70676;DHT22;59069;52.242;20.900;2023-10-31T00:46:40;11.98;88.66
70676;DHT22;59069;52.242;20.900;2023-10-31T00:49:05;11.97;88.59
70676;DHT22;59069;52.242;20.900;2023-10-31T00:51:30;11.97;88.63
70676;DHT22;59069;52.242;20.900;2023-10-31T00:53:56;11.95;88.57
70676;DHT22;59069;52.242;20.900;2023-10-31T00:56:21;11.95;88.67
70676;DHT22;59069;52.242;20.900;2023-10-31T00:58:47;11.97;88.63
70676;DHT22;59069;52.242;20.900;2023-10-31T01:01:12;11.98;88.70
70676;DHT22;59069;52.242;20.900;2023-10-31T01:03:37;11.97;88.63
70676;DHT22;59069;52.242;20.900;2023-10-31T01:06:03;12.00;88.67
70676;DHT22;59069;52.242;20.900;2023-10-31T01:08:29;12.00;88.69
70676;DHT22;59069;52.242;20.900;2023-10-31T01:10:55;12.00;88.57
70676;DHT22;59069;52.242;20.900;2023-10-31T01:13:20;12.00;88.47
70676;DHT22;59069;52.242;20.900;2023-10-31T01:15:46;12.00;88.42
70676;DHT22;59069;52.242;20.900;2023-10-31T01:18:11;12.00;88.40
70676;DHT22;59069;52.242;20.900;2023-10-31T01:20:37;11.95;88.46
70676;DHT22;59069;52.242;20.900;2023-10-31T01:23:03;11.97;88.49
70676;DHT22;59069;52.242;20.900;2023-10-31T01:25:28;11.97;88.49
70676;DHT22;59069;52.242;20.900;2023-10-31T01:27:54;11.98;88.51
70676;DHT22;59069;52.242;20.900;2023-10-31T01:30:19;11.95;88.52
70676;DHT22;59069;52.242;20.900;2023-10-31T01:32:45;11.98;88.70
70676;DHT22;59069;52.242;20.900;2023-10-31T01:35:10;12.01;88.67
70676;DHT22;59069;52.242;20.900;2023-10-31T01:37:35;12.03;88.65
70676;DHT22;59069;52.242;20.900;2023-10-31T01:40:01;12.05;88.55
70676;DHT22;59069;52.242;20.900;2023-10-31T01:42:26;12.07;88.51
70676;DHT22;59069;52.242;20.900;2023-10-31T01:44:52;12.08;88.44
70676;DHT22;59069;52.242;20.900;2023-10-31T01:47:17;12.08;88.33
70676;DHT22;59069;52.242;20.900;2023-10-31T01:49:43;12.07;88.33
70676;DHT22;59069;52.242;20.900;2023-10-31T01:52:08;12.10;88.27
70676;DHT22;59069;52.242;20.900;2023-10-31T01:54:34;12.10;88.18
70676;DHT22;59069;52.242;20.900;2023-10-31T01:57:01;12.08;88.12
70676;DHT22;59069;52.242;20.900;2023-10-31T01:59:27;12.07;88.04
70676;DHT22;59069;52.242;20.900;2023-10-31T02:01:54;12.04;88.12
70676;DHT22;59069;52.242;20.900;2023-10-31T02:04:20;12.07;88.17
70676;DHT22;59069;52.242;20.900;2023-10-31T02:06:45;12.05;88.20
70676;DHT22;59069;52.242;20.900;2023-10-31T02:09:11;12.05;88.19
70676;DHT22;59069;52.242;20.900;2023-10-31T02:11:37;12.07;88.25
70676;DHT22;59069;52.242;20.900;2023-10-31T02:14:03;12.07;88.36
70676;DHT22;59069;52.242;20.900;2023-10-31T02:16:28;12.13;88.41
70676;DHT22;59069;52.242;20.900;2023-10-31T02:18:54;12.21;88.41
70676;DHT22;59069;52.242;20.900;2023-10-31T02:21:20;12.23;88.42
70676;DHT22;59069;52.242;20.900;2023-10-31T02:23:59;12.28;88.21
70676;DHT22;59069;52.242;20.900;2023-10-31T02:26:34;12.34;87.94
70676;DHT22;59069;52.242;20.900;2023-10-31T02:29:00;12.34;87.76
70676;DHT22;59069;52.242;20.900;2023-10-31T02:31:26;12.37;87.68
70676;DHT22;59069;52.242;20.900;2023-10-31T02:33:51;12.38;87.55
70676;DHT22;59069;52.242;20.900;2023-10-31T02:36:16;12.40;87.38
70676;DHT22;59069;52.242;20.900;2023-10-31T02:38:42;12.40;87.35
70676;DHT22;59069;52.242;20.900;2023-10-31T02:41:07;12.35;87.28
70676;DHT22;59069;52.242;20.900;2023-10-31T02:43:33;12.37;87.30
70676;DHT22;59069;52.242;20.900;2023-10-31T02:45:59;12.35;87.31
70676;DHT22;59069;52.242;20.900;2023-10-31T02:48:24;12.32;87.43
70676;DHT22;59069;52.242;20.900;2023-10-31T02:50:50;12.37;87.50
70676;DHT22;59069;52.242;20.900;2023-10-31T02:53:17;12.37;87.39
70676;DHT22;59069;52.242;20.900;2023-10-31T02:55:43;12.38;87.32
70676;DHT22;59069;52.242;20.900;2023-10-31T02:58:08;12.40;87.29
70676;DHT22;59069;52.242;20.900;2023-10-31T03:00:33;12.42;87.24
70676;DHT22;59069;52.242;20.900;2023-10-31T03:02:59;12.45;87.11
70676;DHT22;59069;52.242;20.900;2023-10-31T03:05:24;12.44;87.13
70676;DHT22;59069;52.242;20.900;2023-10-31T03:07:50;12.45;87.15
70676;DHT22;59069;52.242;20.900;2023-10-31T03:10:15;12.46;87.23
70676;DHT22;59069;52.242;20.900;2023-10-31T03:12:41;12.51;87.19
70676;DHT22;59069;52.242;20.900;2023-10-31T03:15:07;12.51;87.17
70676;DHT22;59069;52.242;20.900;2023-10-31T03:17:32;12.54;87.16
70676;DHT22;59069;52.242;20.900;2023-10-31T03:19:57;12.58;87.07
70676;DHT22;59069;52.242;20.900;2023-10-31T03:22:23;12.61;86.97
70676;DHT22;59069;52.242;20.900;2023-10-31T03:24:49;12.63;86.86
70676;DHT22;59069;52.242;20.900;2023-10-31T03:27:14;12.68;86.77
70676;DHT22;59069;52.242;20.900;2023-10-31T03:29:39;12.71;86.64
70676;DHT22;59069;52.242;20.900;2023-10-31T03:32:05;12.78;86.49
70676;DHT22;59069;52.242;20.900;2023-10-31T03:34:30;12.79;86.38
70676;DHT22;59069;52.242;20.900;2023-10-31T03:36:56;12.83;86.21
70676;DHT22;59069;52.242;20.900;2023-10-31T03:39:21;12.85;86.11
70676;DHT22;59069;52.242;20.900;2023-10-31T03:41:46;12.88;85.97
70676;DHT22;59069;52.242;20.900;2023-10-31T03:44:14;12.92;85.82
70676;DHT22;59069;52.242;20.900;2023-10-31T03:46:39;12.95;85.63
70676;DHT22;59069;52.242;20.900;2023-10-31T03:49:05;12.96;85.50
70676;DHT22;59069;52.242;20.900;2023-10-31T03:51:33;12.97;85.38
70676;DHT22;59069;52.242;20.900;2023-10-31T03:53:59;13.00;85.27
70676;DHT22;59069;52.242;20.900;2023-10-31T03:56:24;13.02;85.16
70676;DHT22;59069;52.242;20.900;2023-10-31T03:58:49;13.04;85.05
70676;DHT22;59069;52.242;20.900;2023-10-31T04:01:15;13.07;84.89
70676;DHT22;59069;52.242;20.900;2023-10-31T04:03:40;13.09;84.75
70676;DHT22;59069;52.242;20.900;2023-10-31T04:06:06;13.10;84.69
70676;DHT22;59069;52.242;20.900;2023-10-31T04:08:31;13.14;84.56
70676;DHT22;59069;52.242;20.900;2023-10-31T04:10:56;13.17;84.38
70676;DHT22;59069;52.242;20.900;2023-10-31T04:13:22;13.22;84.25
70676;DHT22;59069;52.242;20.900;2023-10-31T04:15:47;13.26;84.10
70676;DHT22;59069;52.242;20.900;2023-10-31T04:18:13;13.26;83.96
70676;DHT22;59069;52.242;20.900;2023-10-31T04:20:39;13.34;83.81
70676;DHT22;59069;52.242;20.900;2023-10-31T04:23:04;13.36;83.57
70676;DHT22;59069;52.242;20.900;2023-10-31T04:25:30;13.42;83.37
70676;DHT22;59069;52.242;20.900;2023-10-31T04:27:56;13.46;83.14
70676;DHT22;59069;52.242;20.900;2023-10-31T04:30:21;13.50;82.86
70676;DHT22;59069;52.242;20.900;2023-10-31T04:32:46;13.55;82.60
70676;DHT22;59069;52.242;20.900;2023-10-31T04:35:12;13.63;82.28
70676;DHT22;59069;52.242;20.900;2023-10-31T04:37:37;13.67;81.98
70676;DHT22;59069;52.242;20.900;2023-10-31T04:40:03;13.71;81.71
70676;DHT22;59069;52.242;20.900;2023-10-31T04:42:28;13.75;81.44
70676;DHT22;59069;52.242;20.900;2023-10-31T04:44:54;13.77;81.26
70676;DHT22;59069;52.242;20.900;2023-10-31T04:47:19;13.78;81.05
70676;DHT22;59069;52.242;20.900;2023-10-31T04:49:45;13.79;80.92
70676;DHT22;59069;52.242;20.900;2023-10-31T04:52:10;13.82;80.80
70676;DHT22;59069;52.242;20.900;2023-10-31T04:54:37;13.85;80.68
70676;DHT22;59069;52.242;20.900;2023-10-31T04:57:02;13.85;80.57
70676;DHT22;59069;52.242;20.900;2023-10-31T04:59:29;13.89;80.45
70676;DHT22;59069;52.242;20.900;2023-10-31T05:01:54;13.88;80.29
70676;DHT22;59069;52.242;20.900;2023-10-31T05:04:20;13.91;80.18
70676;DHT22;59069;52.242;20.900;2023-10-31T05:06:45;13.95;79.95
70676;DHT22;59069;52.242;20.900;2023-10-31T05:09:11;13.97;79.80
70676;DHT22;59069;52.242;20.900;2023-10-31T05:11:36;14.01;79.58
70676;DHT22;59069;52.242;20.900;2023-10-31T05:14:02;14.04;79.42
70676;DHT22;59069;52.242;20.900;2023-10-31T05:16:27;14.05;79.21
70676;DHT22;59069;52.242;20.900;2023-10-31T05:18:53;14.08;79.05
70676;DHT22;59069;52.242;20.900;2023-10-31T05:21:19;14.09;78.84
70676;DHT22;59069;52.242;20.900;2023-10-31T05:23:48;14.14;78.61
70676;DHT22;59069;52.242;20.900;2023-10-31T05:26:14;14.16;78.33
70676;DHT22;59069;52.242;20.900;2023-10-31T05:28:39;14.18;78.12
70676;DHT22;59069;52.242;20.900;2023-10-31T05:31:05;14.21;77.88
70676;DHT22;59069;52.242;20.900;2023-10-31T05:33:30;14.26;77.80
70676;DHT22;59069;52.242;20.900;2023-10-31T05:35:55;14.25;77.55
70676;DHT22;59069;52.242;20.900;2023-10-31T05:38:21;14.30;77.37
70676;DHT22;59069;52.242;20.900;2023-10-31T05:40:46;14.29;77.20
70676;DHT22;59069;52.242;20.900;2023-10-31T05:43:12;14.30;77.09
70676;DHT22;59069;52.242;20.900;2023-10-31T05:45:37;14.33;76.98
70676;DHT22;59069;52.242;20.900;2023-10-31T05:48:03;14.33;76.95
70676;DHT22;59069;52.242;20.900;2023-10-31T05:50:28;14.33;76.89
70676;DHT22;59069;52.242;20.900;2023-10-31T05:52:54;14.39;76.82
70676;DHT22;59069;52.242;20.900;2023-10-31T05:55:19;14.35;76.86
70676;DHT22;59069;52.242;20.900;2023-10-31T05:57:44;14.30;76.94
70676;DHT22;59069;52.242;20.900;2023-10-31T06:00:10;14.33;76.94
70676;DHT22;59069;52.242;20.900;2023-10-31T06:02:36;14.35;76.83
70676;DHT22;59069;52.242;20.900;2023-10-31T06:05:01;14.37;76.73
70676;DHT22;59069;52.242;20.900;2023-10-31T06:07:26;14.40;76.57
70676;DHT22;59069;52.242;20.900;2023-10-31T06:09:52;14.40;76.46
70676;DHT22;59069;52.242;20.900;2023-10-31T06:12:17;14.45;76.44
70676;DHT22;59069;52.242;20.900;2023-10-31T06:14:42;14.46;76.32
70676;DHT22;59069;52.242;20.900;2023-10-31T06:17:08;14.47;76.22
70676;DHT22;59069;52.242;20.900;2023-10-31T06:19:37;14.47;76.18
70676;DHT22;59069;52.242;20.900;2023-10-31T06:22:03;14.49;76.10
70676;DHT22;59069;52.242;20.900;2023-10-31T06:24:29;14.52;76.04
70676;DHT22;59069;52.242;20.900;2023-10-31T06:26:54;14.52;76.11
70676;DHT22;59069;52.242;20.900;2023-10-31T06:29:19;14.50;76.23
70676;DHT22;59069;52.242;20.900;2023-10-31T06:31:45;14.55;76.21
70676;DHT22;59069;52.242;20.900;2023-10-31T06:34:10;14.57;76.07
70676;DHT22;59069;52.242;20.900;2023-10-31T06:36:35;14.57;76.15
70676;DHT22;59069;52.242;20.900;2023-10-31T06:39:01;14.60;76.19
70676;DHT22;59069;52.242;20.900;2023-10-31T06:41:27;14.65;76.16
70676;DHT22;59069;52.242;20.900;2023-10-31T06:43:52;14.65;76.08
70676;DHT22;59069;52.242;20.900;2023-10-31T06:46:18;14.69;75.92
70676;DHT22;59069;52.242;20.900;2023-10-31T06:48:43;14.67;75.84
70676;DHT22;59069;52.242;20.900;2023-10-31T06:51:08;14.67;75.82
70676;DHT22;59069;52.242;20.900;2023-10-31T06:53:34;14.67;75.83
70676;DHT22;59069;52.242;20.900;2023-10-31T06:55:59;14.67;75.97
70676;DHT22;59069;52.242;20.900;2023-10-31T06:58:25;14.67;76.09
70676;DHT22;59069;52.242;20.900;2023-10-31T07:00:50;14.69;76.20
70676;DHT22;59069;52.242;20.900;2023-10-31T07:03:16;14.69;76.28
70676;DHT22;59069;52.242;20.900;2023-10-31T07:05:42;14.66;76.27
70676;DHT22;59069;52.242;20.900;2023-10-31T07:08:07;14.67;76.21
70676;DHT22;59069;52.242;20.900;2023-10-31T07:10:33;14.67;76.11
70676;DHT22;59069;52.242;20.900;2023-10-31T07:12:59;14.72;75.99
70676;DHT22;59069;52.242;20.900;2023-10-31T07:15:27;14.73;75.88
70676;DHT22;59069;52.242;20.900;2023-10-31T07:17:53;14.72;75.95
70676;DHT22;59069;52.242;20.900;2023-10-31T07:20:18;14.73;75.97
70676;DHT22;59069;52.242;20.900;2023-10-31T07:22:43;14.75;75.97
70676;DHT22;59069;52.242;20.900;2023-10-31T07:25:09;14.76;75.87
70676;DHT22;59069;52.242;20.900;2023-10-31T07:27:35;14.76;75.79
70676;DHT22;59069;52.242;20.900;2023-10-31T07:30:02;14.80;75.62
70676;DHT22;59069;52.242;20.900;2023-10-31T07:32:27;14.80;75.41
70676;DHT22;59069;52.242;20.900;2023-10-31T07:34:53;14.80;75.23
70676;DHT22;59069;52.242;20.900;2023-10-31T07:37:18;14.83;74.96
70676;DHT22;59069;52.242;20.900;2023-10-31T07:39:43;14.84;74.87
70676;DHT22;59069;52.242;20.900;2023-10-31T07:42:09;14.84;74.85
70676;DHT22;59069;52.242;20.900;2023-10-31T07:44:34;14.86;74.74
70676;DHT22;59069;52.242;20.900;2023-10-31T07:47:00;14.90;74.65
70676;DHT22;59069;52.242;20.900;2023-10-31T07:49:25;14.88;74.56
70676;DHT22;59069;52.242;20.900;2023-10-31T07:51:51;14.90;74.59
70676;DHT22;59069;52.242;20.900;2023-10-31T07:54:16;14.93;74.52
70676;DHT22;59069;52.242;20.900;2023-10-31T07:56:42;14.94;74.60
70676;DHT22;59069;52.242;20.900;2023-10-31T07:59:08;14.94;74.73
70676;DHT22;59069;52.242;20.900;2023-10-31T08:01:33;14.93;74.87
70676;DHT22;59069;52.242;20.900;2023-10-31T08:03:59;14.94;74.95
70676;DHT22;59069;52.242;20.900;2023-10-31T08:06:25;14.96;74.99
70676;DHT22;59069;52.242;20.900;2023-10-31T08:08:50;15.00;74.90
70676;DHT22;59069;52.242;20.900;2023-10-31T08:11:15;15.03;74.79
70676;DHT22;59069;52.242;20.900;2023-10-31T08:13:41;15.04;74.58
70676;DHT22;59069;52.242;20.900;2023-10-31T08:16:07;15.07;74.42
70676;DHT22;59069;52.242;20.900;2023-10-31T08:18:33;15.14;74.27
70676;DHT22;59069;52.242;20.900;2023-10-31T08:20:58;15.17;73.97
70676;DHT22;59069;52.242;20.900;2023-10-31T08:23:25;15.21;73.76
70676;DHT22;59069;52.242;20.900;2023-10-31T08:25:50;15.24;73.48
70676;DHT22;59069;52.242;20.900;2023-10-31T08:28:16;15.31;73.13
70676;DHT22;59069;52.242;20.900;2023-10-31T08:30:41;15.38;72.90
70676;DHT22;59069;52.242;20.900;2023-10-31T08:33:07;15.44;72.56
70676;DHT22;59069;52.242;20.900;2023-10-31T08:35:32;15.52;72.32
70676;DHT22;59069;52.242;20.900;2023-10-31T08:37:59;15.59;71.97
70676;DHT22;59069;52.242;20.900;2023-10-31T08:40:25;15.68;71.64
70676;DHT22;59069;52.242;20.900;2023-10-31T08:42:50;15.78;71.30
70676;DHT22;59069;52.242;20.900;2023-10-31T08:45:16;15.88;71.00
70676;DHT22;59069;52.242;20.900;2023-10-31T08:47:41;15.97;70.67
70676;DHT22;59069;52.242;20.900;2023-10-31T08:50:07;16.09;70.39
70676;DHT22;59069;52.242;20.900;2023-10-31T08:52:36;16.13;70.04
70676;DHT22;59069;52.242;20.900;2023-10-31T08:55:02;16.19;69.58
70676;DHT22;59069;52.242;20.900;2023-10-31T08:57:27;16.20;69.55
70676;DHT22;59069;52.242;20.900;2023-10-31T08:59:52;16.26;69.46
70676;DHT22;59069;52.242;20.900;2023-10-31T09:02:18;16.26;69.14
70676;DHT22;59069;52.242;20.900;2023-10-31T09:04:43;16.29;68.84
70676;DHT22;59069;52.242;20.900;2023-10-31T09:07:08;16.34;68.37
70676;DHT22;59069;52.242;20.900;2023-10-31T09:09:34;16.40;68.05
70676;DHT22;59069;52.242;20.900;2023-10-31T09:11:59;16.44;67.67
70676;DHT22;59069;52.242;20.900;2023-10-31T09:14:24;16.46;67.55
70676;DHT22;59069;52.242;20.900;2023-10-31T09:16:50;16.46;67.48
70676;DHT22;59069;52.242;20.900;2023-10-31T09:19:15;16.44;67.41
70676;DHT22;59069;52.242;20.900;2023-10-31T09:21:40;16.44;67.38
70676;DHT22;59069;52.242;20.900;2023-10-31T09:24:07;16.40;67.33
70676;DHT22;59069;52.242;20.900;2023-10-31T09:26:32;16.37;67.34
70676;DHT22;59069;52.242;20.900;2023-10-31T09:28:58;16.34;67.52
70676;DHT22;59069;52.242;20.900;2023-10-31T09:31:24;16.33;67.65
70676;DHT22;59069;52.242;20.900;2023-10-31T09:33:49;16.33;67.55
70676;DHT22;59069;52.242;20.900;2023-10-31T09:36:15;16.36;67.44
70676;DHT22;59069;52.242;20.900;2023-10-31T09:38:40;16.37;67.49
70676;DHT22;59069;52.242;20.900;2023-10-31T09:41:06;16.36;67.57
70676;DHT22;59069;52.242;20.900;2023-10-31T09:43:32;16.37;67.68
70676;DHT22;59069;52.242;20.900;2023-10-31T09:45:57;16.36;68.04
70676;DHT22;59069;52.242;20.900;2023-10-31T09:48:23;16.37;68.43
70676;DHT22;59069;52.242;20.900;2023-10-31T09:50:49;16.40;68.43
70676;DHT22;59069;52.242;20.900;2023-10-31T09:53:15;16.41;68.18
70676;DHT22;59069;52.242;20.900;2023-10-31T09:55:44;16.43;68.11
70676;DHT22;59069;52.242;20.900;2023-10-31T09:58:10;16.50;67.90
70676;DHT22;59069;52.242;20.900;2023-10-31T10:00:35;16.51;67.69
70676;DHT22;59069;52.242;20.900;2023-10-31T10:03:03;16.56;67.40
70676;DHT22;59069;52.242;20.900;2023-10-31T10:05:31;16.58;66.95
70676;DHT22;59069;52.242;20.900;2023-10-31T10:07:57;16.65;66.68
70676;DHT22;59069;52.242;20.900;2023-10-31T10:10:23;16.68;66.64
70676;DHT22;59069;52.242;20.900;2023-10-31T10:12:52;16.72;66.48
70676;DHT22;59069;52.242;20.900;2023-10-31T10:15:18;16.77;66.53
70676;DHT22;59069;52.242;20.900;2023-10-31T10:17:52;16.88;66.78
70676;DHT22;59069;52.242;20.900;2023-10-31T10:20:18;16.96;66.73
70676;DHT22;59069;52.242;20.900;2023-10-31T10:22:44;17.11;66.53
70676;DHT22;59069;52.242;20.900;2023-10-31T10:25:11;17.22;66.29
70676;DHT22;59069;52.242;20.900;2023-10-31T10:27:41;17.32;65.87
70676;DHT22;59069;52.242;20.900;2023-10-31T10:30:08;17.38;65.36
70676;DHT22;59069;52.242;20.900;2023-10-31T10:32:34;17.43;65.00
70676;DHT22;59069;52.242;20.900;2023-10-31T10:34:59;17.45;65.06
70676;DHT22;59069;52.242;20.900;2023-10-31T10:37:26;17.50;65.11
70676;DHT22;59069;52.242;20.900;2023-10-31T10:39:53;17.53;64.86
70676;DHT22;59069;52.242;20.900;2023-10-31T10:42:31;17.54;64.60
70676;DHT22;59069;52.242;20.900;2023-10-31T10:45:01;17.54;64.75
70676;DHT22;59069;52.242;20.900;2023-10-31T10:47:28;17.56;64.66
70676;DHT22;59069;52.242;20.900;2023-10-31T10:49:57;17.54;64.64
70676;DHT22;59069;52.242;20.900;2023-10-31T10:52:28;17.56;64.83
70676;DHT22;59069;52.242;20.900;2023-10-31T10:55:02;17.59;65.11
70676;DHT22;59069;52.242;20.900;2023-10-31T10:57:42;17.60;65.19
70676;DHT22;59069;52.242;20.900;2023-10-31T11:00:11;17.71;65.15
70676;DHT22;59069;52.242;20.900;2023-10-31T11:02:39;17.79;65.03
70676;DHT22;59069;52.242;20.900;2023-10-31T11:05:06;17.86;65.16
70676;DHT22;59069;52.242;20.900;2023-10-31T11:07:34;17.93;65.07
70676;DHT22;59069;52.242;20.900;2023-10-31T11:09:59;17.98;64.79
70676;DHT22;59069;52.242;20.900;2023-10-31T11:12:29;18.00;64.68
70676;DHT22;59069;52.242;20.900;2023-10-31T11:14:56;18.04;64.73
70676;DHT22;59069;52.242;20.900;2023-10-31T11:17:31;18.04;64.67
70676;DHT22;59069;52.242;20.900;2023-10-31T11:19:57;18.05;64.72
70676;DHT22;59069;52.242;20.900;2023-10-31T11:22:23;18.01;64.70
70676;DHT22;59069;52.242;20.900;2023-10-31T11:24:49;18.00;64.84
70676;DHT22;59069;52.242;20.900;2023-10-31T11:27:16;17.98;64.94
70676;DHT22;59069;52.242;20.900;2023-10-31T11:29:42;17.94;65.10
70676;DHT22;59069;52.242;20.900;2023-10-31T11:32:09;17.93;65.29
70676;DHT22;59069;52.242;20.900;2023-10-31T11:34:37;17.91;65.57
70676;DHT22;59069;52.242;20.900;2023-10-31T11:42:38;17.84;66.20
70676;DHT22;59069;52.242;20.900;2023-10-31T11:45:04;17.80;66.47
70676;DHT22;59069;52.242;20.900;2023-10-31T11:47:49;17.79;66.72
70676;DHT22;59069;52.242;20.900;2023-10-31T11:50:15;17.77;66.95
70676;DHT22;59069;52.242;20.900;2023-10-31T11:52:41;17.74;67.22
70676;DHT22;59069;52.242;20.900;2023-10-31T11:55:10;17.74;67.51
70676;DHT22;59069;52.242;20.900;2023-10-31T11:57:36;17.73;67.63
70676;DHT22;59069;52.242;20.900;2023-10-31T12:00:03;17.69;67.82
70676;DHT22;59069;52.242;20.900;2023-10-31T12:02:29;17.66;68.15
70676;DHT22;59069;52.242;20.900;2023-10-31T12:05:08;17.65;68.42
70676;DHT22;59069;52.242;20.900;2023-10-31T12:07:46;17.60;68.69
70676;DHT22;59069;52.242;20.900;2023-10-31T12:10:12;17.65;68.87
70676;DHT22;59069;52.242;20.900;2023-10-31T12:12:38;17.70;68.91
70676;DHT22;59069;52.242;20.900;2023-10-31T12:15:07;17.67;68.74
70676;DHT22;59069;52.242;20.900;2023-10-31T12:17:33;17.63;68.72
70676;DHT22;59069;52.242;20.900;2023-10-31T12:20:06;17.60;68.80
70676;DHT22;59069;52.242;20.900;2023-10-31T12:22:32;17.57;69.02
70676;DHT22;59069;52.242;20.900;2023-10-31T12:25:05;17.53;69.17
70676;DHT22;59069;52.242;20.900;2023-10-31T12:27:48;17.54;69.27
70676;DHT22;59069;52.242;20.900;2023-10-31T12:30:19;17.50;69.29
70676;DHT22;59069;52.242;20.900;2023-10-31T12:32:45;17.46;69.40
70676;DHT22;59069;52.242;20.900;2023-10-31T12:35:12;17.45;69.31
70676;DHT22;59069;52.242;20.900;2023-10-31T12:37:46;17.40;69.33
70676;DHT22;59069;52.242;20.900;2023-10-31T12:40:17;17.35;69.44
70676;DHT22;59069;52.242;20.900;2023-10-31T12:42:43;17.32;69.56
70676;DHT22;59069;52.242;20.900;2023-10-31T12:45:09;17.22;69.76
70676;DHT22;59069;52.242;20.900;2023-10-31T12:47:35;17.23;70.03
70676;DHT22;59069;52.242;20.900;2023-10-31T12:50:16;17.16;70.21
70676;DHT22;59069;52.242;20.900;2023-10-31T12:55:16;17.05;70.28
70676;DHT22;59069;52.242;20.900;2023-10-31T12:57:42;17.01;70.37
70676;DHT22;59069;52.242;20.900;2023-10-31T13:00:10;16.95;70.51
70676;DHT22;59069;52.242;20.900;2023-10-31T13:02:38;16.91;70.48
70676;DHT22;59069;52.242;20.900;2023-10-31T13:05:11;16.85;70.53
70676;DHT22;59069;52.242;20.900;2023-10-31T13:07:37;16.82;70.51
70676;DHT22;59069;52.242;20.900;2023-10-31T13:10:04;16.78;70.53
70676;DHT22;59069;52.242;20.900;2023-10-31T13:12:30;16.78;70.60
70676;DHT22;59069;52.242;20.900;2023-10-31T13:14:55;16.71;70.79
70676;DHT22;59069;52.242;20.900;2023-10-31T13:17:21;16.70;71.00
70676;DHT22;59069;52.242;20.900;2023-10-31T13:19:46;16.65;71.29
70676;DHT22;59069;52.242;20.900;2023-10-31T13:22:12;16.63;71.58
70676;DHT22;59069;52.242;20.900;2023-10-31T13:24:37;16.58;71.82
70676;DHT22;59069;52.242;20.900;2023-10-31T13:27:02;16.56;72.17
70676;DHT22;59069;52.242;20.900;2023-10-31T13:29:29;16.53;72.54
70676;DHT22;59069;52.242;20.900;2023-10-31T13:31:54;16.51;72.94
70676;DHT22;59069;52.242;20.900;2023-10-31T13:34:20;16.51;73.03
70676;DHT22;59069;52.242;20.900;2023-10-31T13:36:46;16.50;72.80
70676;DHT22;59069;52.242;20.900;2023-10-31T13:39:11;16.48;72.38
70676;DHT22;59069;52.242;20.900;2023-10-31T13:41:37;16.44;72.22
70676;DHT22;59069;52.242;20.900;2023-10-31T13:44:02;16.41;72.19
70676;DHT22;59069;52.242;20.900;2023-10-31T13:46:29;16.38;72.12
70676;DHT22;59069;52.242;20.900;2023-10-31T13:48:54;16.41;72.15
70676;DHT22;59069;52.242;20.900;2023-10-31T13:51:20;16.37;72.14
70676;DHT22;59069;52.242;20.900;2023-10-31T13:53:45;16.36;71.71
70676;DHT22;59069;52.242;20.900;2023-10-31T13:56:10;16.34;71.46
70676;DHT22;59069;52.242;20.900;2023-10-31T13:58:36;16.31;71.41
70676;DHT22;59069;52.242;20.900;2023-10-31T14:01:01;16.30;70.84
70676;DHT22;59069;52.242;20.900;2023-10-31T14:03:27;16.29;70.59
70676;DHT22;59069;52.242;20.900;2023-10-31T14:05:52;16.27;70.46
70676;DHT22;59069;52.242;20.900;2023-10-31T14:08:18;16.33;70.53
70676;DHT22;59069;52.242;20.900;2023-10-31T14:10:44;16.38;70.44
70676;DHT22;59069;52.242;20.900;2023-10-31T14:13:11;16.38;69.83
70676;DHT22;59069;52.242;20.900;2023-10-31T14:15:37;16.31;69.64
70676;DHT22;59069;52.242;20.900;2023-10-31T14:18:03;16.31;69.57
70676;DHT22;59069;52.242;20.900;2023-10-31T14:20:29;16.26;69.69
70676;DHT22;59069;52.242;20.900;2023-10-31T14:22:55;16.23;69.92
70676;DHT22;59069;52.242;20.900;2023-10-31T14:25:20;16.19;70.27
70676;DHT22;59069;52.242;20.900;2023-10-31T14:27:45;16.17;70.55
70676;DHT22;59069;52.242;20.900;2023-10-31T14:30:11;16.13;70.69
70676;DHT22;59069;52.242;20.900;2023-10-31T14:32:37;16.13;70.85
70676;DHT22;59069;52.242;20.900;2023-10-31T14:35:04;16.09;70.99
70676;DHT22;59069;52.242;20.900;2023-10-31T14:37:29;16.06;71.15
70676;DHT22;59069;52.242;20.900;2023-10-31T14:39:55;15.97;71.32
70676;DHT22;59069;52.242;20.900;2023-10-31T14:42:20;15.92;71.56
70676;DHT22;59069;52.242;20.900;2023-10-31T14:44:46;15.88;71.73
70676;DHT22;59069;52.242;20.900;2023-10-31T14:47:12;15.83;71.77
70676;DHT22;59069;52.242;20.900;2023-10-31T14:49:37;15.76;71.78
70676;DHT22;59069;52.242;20.900;2023-10-31T14:52:02;15.68;71.86
70676;DHT22;59069;52.242;20.900;2023-10-31T14:54:29;15.62;72.04
70676;DHT22;59069;52.242;20.900;2023-10-31T14:56:54;15.56;72.26
70676;DHT22;59069;52.242;20.900;2023-10-31T14:59:20;15.48;72.38
70676;DHT22;59069;52.242;20.900;2023-10-31T15:01:45;15.44;72.39
70676;DHT22;59069;52.242;20.900;2023-10-31T15:04:11;15.37;72.37
70676;DHT22;59069;52.242;20.900;2023-10-31T15:06:36;15.35;72.41
70676;DHT22;59069;52.242;20.900;2023-10-31T15:09:02;15.28;72.32
70676;DHT22;59069;52.242;20.900;2023-10-31T15:11:28;15.24;72.21
70676;DHT22;59069;52.242;20.900;2023-10-31T15:13:53;15.16;72.13
70676;DHT22;59069;52.242;20.900;2023-10-31T15:16:19;15.12;72.14